ZWWW/URC METAR and TAF weather

Enter ICAO airport designator
Station Type Date Time Source
ZWWW METAR 2019/10/15 03:30 UTC NOAA

ZWWW 150330Z 01003MPS CAVOK 15/01 Q1024 NOSIG


Station Type Date Time Source
ZWWW Decoded METAR 2019/10/15 03:30 UTC NOAA

Urum-Qi / Diwopu, China (ZWWW) 43-54N 087-28E
Oct 14, 2019 - 11:30 PM EDT / 2019.10.15 0330 UTC
Wind: from the N (010 degrees) at 7 MPH (6 KT):0
Visibility: greater than 7 mile(s):0
Temperature: 59 F (15 C)
Dew Point: 33 F (1 C)
Relative Humidity: 38%
Pressure (altimeter): 30.24 in. Hg (1024 hPa)
ob: ZWWW 150330Z 01003MPS CAVOK 15/01 Q1024 NOSIG
cycle: 3

Station Type Date Time Source
ZWWW TAF 2019/10/14 18:03 UTC NOAA

TAF ZWWW 141503Z 1418/1518 17004MPS CAVOK TX21/1509Z TN12/1423Z
BECMG 1503/1504 36004MPS
BECMG 1513/1514 18004MPS

Example: see airport list